Puerto Banus, Marbella

>

This is an optional block (switch it off / on) in the settings - file ($SITE['banners'] = false;)

You can display ads, any other important text or photo’s using text / html or PHP code.

You can place one or more at the top and or bottom and it can all be different for content / size .



Meteosat more information blitzortung!


Radar lluvias  rain snow radar


Visita nuestra red de sitios de meteo:

Documentation for the template used

MeteoibericaRed estaciones Meteorologicas

MeteoclimaticRed estaciones Meteorologicas



Sin Advertencias climatologicas .En este momento tenemos Nivel Verde.    No hay Alarmas

Informes METAR proximidad

   
EBAW - Antwerp
Actualización: 18-06-2018 12:50
Parcialmente nublado  
Parcialmente nublado  
   Viento: SW 18.5 km/h
Viento: SW 18.5 km/h
Temperatura: 18°C
Punto de rocío: 15°C
Humedad: 83%
Baromètro: 1020 hPa
Nublado: Parcialmente nublado
Visibilidad: More than 10 km
detalles de la nube: Nubes dispersas 1500 ft,
Parcialmente nublado 2300 ft
EBAW 181050Z 22010KT 9999 FEW015 BKN023 18/15 Q1020 NOSIG
EBLG - Liège
Actualización: 18-06-2018 12:50
Parcialmente nublado  
Parcialmente nublado  
   Viento: SW 29.6 km/h
Viento: SW 29.6 km/h
Temperatura: 20°C
Punto de rocío: 13°C
Humedad: 64%
Baromètro: 1021 hPa
Nublado: Parcialmente nublado
Visibilidad: More than 10 km
detalles de la nube: Nubes dispersas 2000 ft,
Parcialmente nublado 2700 ft
EBLG 181050Z 23016KT 9999 FEW020 BKN027 20/13 Q1021 NOSIG
EBCV - Mons/Bergen
Actualización: 18-06-2018 10:55
NO actual
Nublado  
Nublado  
   Viento: SW 14.8 km/h
Viento: SW 14.8 km/h
Temperatura: 18°C
Punto de rocío: 15°C
Humedad: 83%
Baromètro: 1021 hPa
Nublado: Nublado
Visibilidad: More than 10 km
detalles de la nube: Nublado 1400 ft
EBCV 180855Z AUTO 22008KT 9999 OVC014/// 18/15 Q1021 GRN
EHBK - Maastricht
Actualización: 18-06-2018 12:55
Nublado  
Nublado  
   Viento: WSW 18.5 km/h
Viento: WSW 18.5 km/h
Temperatura: 19°C
Punto de rocío: 14°C
Humedad: 73%
Baromètro: 1020 hPa
Nublado: Nublado
Visibilidad: More than 10 km
detalles de la nube: Parcialmente nublado 2300 ft,
Nublado 2700 ft
EHBK 181055Z AUTO 24010KT 190V290 9999 BKN023 OVC027 19/14 Q1020 NOSIG
ELLX - Luxemburg
Actualización: 18-06-2018 12:50
Parcialmente nublado  
Parcialmente nublado  
   Viento: WSW 18.5 km/h
Viento: WSW 18.5 km/h
Temperatura: 19°C
Punto de rocío: 13°C
Humedad: 68%
Baromètro: 1023 hPa
Nublado: Parcialmente nublado
Visibilidad: More than 10 km
detalles de la nube: Nubes dispersas 2600 ft,
Parcialmente nublado 4000 ft
ELLX 181050Z 24010KT 200V270 9999 FEW026 BKN040 19/13 Q1023 NOSIG
EBOS - Oostende
Actualización: 18-06-2018 12:50
Parcialmente nublado  
Parcialmente nublado  
   Viento: WSW 20.4 km/h
Viento: WSW 20.4 km/h
Temperatura: 17°C
Punto de rocío: 12°C
Humedad: 73%
Baromètro: 1021 hPa
Nublado: Parcialmente nublado
Visibilidad: More than 10 km
detalles de la nube: Parcialmente nublado 1700 ft,
Parcialmente nublado 2200 ft
EBOS 181050Z 24011KT 9999 BKN017 BKN022 17/12 Q1021 TEMPO 4000 -RADZ BKN008

Guión original por  Saratoga-weather.org Adaptado para la plantilla por  Weerstation Leuven

Usted encontrará nuestra información del tiempo también en:

Weather Underground

Iberian Peninsula Weather Network